createdAt,value
2019-01-25T00:00:39.688Z,23.97
2019-01-25T00:03:10.304Z,25.10
2019-01-25T00:05:39.747Z,24.07
2019-01-25T00:08:08.961Z,23.17
2019-01-25T00:10:38.172Z,23.57
2019-01-25T00:13:07.411Z,21.47
2019-01-25T00:15:36.640Z,22.47
2019-01-25T00:18:06.940Z,19.70
2019-01-25T00:20:36.144Z,20.97
2019-01-25T00:23:05.384Z,25.83
2019-01-25T00:25:34.612Z,20.63
2019-01-25T00:28:03.800Z,21.33
2019-01-25T00:30:33.036Z,20.37
2019-01-25T00:33:02.266Z,23.77
2019-01-25T00:35:31.507Z,23.90
2019-01-25T00:38:00.749Z,25.17
2019-01-25T00:40:29.988Z,23.90
2019-01-25T00:42:59.187Z,22.50
2019-01-25T00:45:28.424Z,22.63
2019-01-25T00:47:57.652Z,21.50
2019-01-25T00:50:26.909Z,21.73
2019-01-25T00:52:56.112Z,23.30
2019-01-25T00:55:25.334Z,20.80
2019-01-25T00:57:54.576Z,22.93
2019-01-25T01:00:25.395Z,21.50
2019-01-25T01:02:54.815Z,21.60
2019-01-25T01:05:24.463Z,21.60
2019-01-25T01:07:53.932Z,21.27
2019-01-25T01:10:23.316Z,21.03
2019-01-25T01:12:53.084Z,23.70
2019-01-25T01:15:22.342Z,23.43
2019-01-25T01:17:51.541Z,21.73
2019-01-25T01:20:21.304Z,22.37
2019-01-25T01:22:50.520Z,22.63
2019-01-25T01:25:19.963Z,24.60
2019-01-25T01:27:49.163Z,22.03
2019-01-25T01:30:20.795Z,23.60
2019-01-25T01:32:50.488Z,25.37
2019-01-25T01:35:19.684Z,23.17
2019-01-25T01:37:49.537Z,23.50
2019-01-25T01:40:22.041Z,22.90
2019-01-25T01:42:52.060Z,25.13
2019-01-25T01:45:21.601Z,24.63
2019-01-25T01:47:51.034Z,22.17
2019-01-25T01:50:20.544Z,22.00
2019-01-25T01:52:50.954Z,22.27
2019-01-25T01:55:20.196Z,24.47
2019-01-25T01:57:49.419Z,22.13
2019-01-25T02:00:26.136Z,21.67
2019-01-25T02:02:55.844Z,23.80
2019-01-25T02:05:25.140Z,22.03
2019-01-25T02:07:54.528Z,23.70
2019-01-25T02:10:29.623Z,21.57
2019-01-25T02:12:58.797Z,21.10
2019-01-25T02:15:28.070Z,23.63
2019-01-25T02:17:57.326Z,21.80
2019-01-25T02:20:28.724Z,23.80
2019-01-25T02:22:58.227Z,21.90
2019-01-25T02:25:27.472Z,23.13
2019-01-25T02:27:56.696Z,22.40
2019-01-25T02:30:27.163Z,23.23
2019-01-25T02:32:56.384Z,20.73
2019-01-25T02:35:25.607Z,22.60
2019-01-25T02:37:54.848Z,20.90
2019-01-25T02:40:25.751Z,20.67
2019-01-25T02:42:55.165Z,26.10
2019-01-25T02:45:24.413Z,26.13
2019-01-25T02:47:53.626Z,23.13
2019-01-25T02:50:22.850Z,23.60
2019-01-25T02:52:52.082Z,22.47
2019-01-25T02:55:21.326Z,22.77
2019-01-25T02:57:50.584Z,24.70
2019-01-25T03:00:28.861Z,22.83
2019-01-25T03:02:58.096Z,22.43
2019-01-25T03:05:27.457Z,24.47
2019-01-25T03:07:56.680Z,23.90
2019-01-25T03:10:28.915Z,22.50
2019-01-25T03:12:57.130Z,26.17
2019-01-25T03:15:27.417Z,24.90
2019-01-25T03:17:56.644Z,23.80
2019-01-25T03:20:25.881Z,23.17
2019-01-25T03:22:55.092Z,22.00
2019-01-25T03:25:26.004Z,20.33
2019-01-25T03:27:55.468Z,21.20
2019-01-25T03:30:26.073Z,21.57
2019-01-25T03:32:55.293Z,22.00
2019-01-25T03:35:26.126Z,23.70
2019-01-25T03:37:55.670Z,22.97
2019-01-25T03:40:28.892Z,23.90
2019-01-25T03:42:58.206Z,21.70
2019-01-25T03:45:27.904Z,19.50
2019-01-25T03:47:57.115Z,22.27
2019-01-25T03:50:28.610Z,21.47
2019-01-25T03:52:58.243Z,25.33
2019-01-25T03:55:27.657Z,24.90
2019-01-25T03:57:57.084Z,26.93
2019-01-25T04:00:28.436Z,28.03
2019-01-25T04:02:57.684Z,25.83
2019-01-25T04:05:26.916Z,22.73
2019-01-25T04:07:56.147Z,22.93
2019-01-25T04:10:26.947Z,24.90
2019-01-25T04:12:56.175Z,22.33
2019-01-25T04:15:27.632Z,24.70
2019-01-25T04:17:56.851Z,23.60
2019-01-25T04:20:26.060Z,22.00
2019-01-25T04:22:55.284Z,24.67
2019-01-25T04:25:24.580Z,24.27
2019-01-25T04:27:54.068Z,20.60
2019-01-25T04:30:28.223Z,26.67
2019-01-25T04:32:57.478Z,20.60
2019-01-25T04:35:26.752Z,23.83
2019-01-25T04:37:56.064Z,22.70
2019-01-25T04:40:25.302Z,20.97
2019-01-25T04:42:54.524Z,23.80
2019-01-25T04:45:24.000Z,23.23
2019-01-25T04:47:53.323Z,20.60
2019-01-25T04:50:24.306Z,24.40
2019-01-25T04:52:54.074Z,21.67
2019-01-25T04:55:33.802Z,22.03
2019-01-25T04:58:09.196Z,23.70
2019-01-25T05:00:38.423Z,23.70
2019-01-25T05:03:07.620Z,20.90
2019-01-25T05:05:37.369Z,23.00
2019-01-25T05:08:09.581Z,24.03
2019-01-25T05:10:38.819Z,21.60
2019-01-25T05:13:08.214Z,21.30
2019-01-25T05:15:37.536Z,21.40
2019-01-25T05:18:07.320Z,22.47
2019-01-25T05:20:36.556Z,22.40
2019-01-25T05:23:06.552Z,20.87
2019-01-25T05:25:35.954Z,21.97
2019-01-25T05:28:10.708Z,23.20
2019-01-25T05:30:39.943Z,22.53
2019-01-25T05:33:09.185Z,27.20
2019-01-25T05:35:38.417Z,26.77
2019-01-25T05:38:07.645Z,21.90
2019-01-25T05:40:36.885Z,22.33
2019-01-25T05:43:06.098Z,23.57
2019-01-25T05:45:38.472Z,22.63
2019-01-25T05:48:07.676Z,22.27
2019-01-25T05:50:36.909Z,21.87
2019-01-25T05:53:06.133Z,25.33
2019-01-25T05:55:35.402Z,23.07
2019-01-25T05:58:05.490Z,23.63
2019-01-25T06:00:37.387Z,26.20
2019-01-25T06:03:14.629Z,19.80
2019-01-25T06:05:44.371Z,20.33
2019-01-25T06:08:32.931Z,22.50
2019-01-25T06:11:12.304Z,24.20
2019-01-25T06:13:45.653Z,17.60
2019-01-25T06:16:16.649Z,16.73
2019-01-25T06:18:45.875Z,18.00
2019-01-25T06:21:15.102Z,21.47
2019-01-25T06:23:44.345Z,19.93
2019-01-25T06:26:14.944Z,23.30
2019-01-25T06:28:46.535Z,22.83
2019-01-25T06:31:19.283Z,22.27
2019-01-25T06:33:48.529Z,19.60
2019-01-25T06:36:17.800Z,20.47
2019-01-25T06:38:47.021Z,23.90
2019-01-25T06:41:16.256Z,19.37
2019-01-25T06:43:45.499Z,24.13
2019-01-25T06:46:15.124Z,25.40
2019-01-25T06:48:44.454Z,22.40
2019-01-25T06:51:13.679Z,18.60
2019-01-25T06:53:42.946Z,20.80
2019-01-25T06:56:12.176Z,20.97
2019-01-25T06:58:47.140Z,22.80
2019-01-25T07:01:37.252Z,24.07
2019-01-25T07:04:06.401Z,21.50
2019-01-25T07:06:35.716Z,24.20
2019-01-25T07:09:10.568Z,23.43
2019-01-25T07:11:42.211Z,21.20
2019-01-25T07:14:10.662Z,20.87
2019-01-25T07:16:39.979Z,26.13
2019-01-25T07:19:09.178Z,22.33
2019-01-25T07:21:38.428Z,26.57
2019-01-25T07:24:07.649Z,25.40
2019-01-25T07:26:36.879Z,25.63
2019-01-25T07:29:06.092Z,25.17
2019-01-25T07:31:35.320Z,26.30
2019-01-25T07:34:04.652Z,26.70
2019-01-25T07:36:34.002Z,24.03
2019-01-25T07:39:23.373Z,21.33
2019-01-25T07:41:58.914Z,19.67
2019-01-25T07:44:23.545Z,18.07
2019-01-25T07:46:52.786Z,24.10
2019-01-25T07:49:21.978Z,26.27
2019-01-25T07:51:51.208Z,26.00
2019-01-25T07:54:20.437Z,24.47
2019-01-25T07:56:49.681Z,21.97
2019-01-25T07:59:18.964Z,26.83
2019-01-25T08:01:48.206Z,27.53
2019-01-25T08:04:17.405Z,21.47
2019-01-25T08:06:46.629Z,23.40
2019-01-25T08:09:15.849Z,27.60
2019-01-25T08:11:45.093Z,26.40
2019-01-25T08:14:14.330Z,24.90
2019-01-25T08:16:43.505Z,25.33
2019-01-25T08:19:12.722Z,27.40
2019-01-25T08:21:42.857Z,25.73
2019-01-25T08:24:12.184Z,22.57
2019-01-25T08:26:41.437Z,26.43
2019-01-25T08:29:10.657Z,26.93
2019-01-25T08:31:39.881Z,26.63
2019-01-25T08:34:09.117Z,27.37
2019-01-25T08:36:38.321Z,28.03
2019-01-25T08:39:10.033Z,28.43
2019-01-25T08:41:39.263Z,26.17
2019-01-25T08:44:08.467Z,25.10
2019-01-25T08:46:37.694Z,26.77
2019-01-25T08:49:06.925Z,25.40
2019-01-25T08:51:36.510Z,27.70
2019-01-25T08:54:05.907Z,28.23
2019-01-25T08:56:35.101Z,28.73
2019-01-25T08:59:04.441Z,28.67
2019-01-25T09:01:33.658Z,27.47
2019-01-25T09:04:02.900Z,29.33
2019-01-25T09:06:32.096Z,31.40
2019-01-25T09:09:01.347Z,28.33
2019-01-25T09:11:30.569Z,28.83
2019-01-25T09:13:59.812Z,28.33
2019-01-25T09:16:28.993Z,28.20
2019-01-25T09:18:58.240Z,29.03
2019-01-25T09:21:27.442Z,27.93
2019-01-25T09:23:56.700Z,32.20
2019-01-25T09:26:25.920Z,29.03
2019-01-25T09:28:55.153Z,28.07
2019-01-25T09:31:24.360Z,30.03
2019-01-25T09:33:53.602Z,28.83
2019-01-25T09:36:22.828Z,30.50
2019-01-25T09:38:52.141Z,29.63
2019-01-25T09:41:21.428Z,31.87
2019-01-25T09:43:50.657Z,29.67
2019-01-25T09:46:19.867Z,29.33
2019-01-25T09:48:49.112Z,29.50
2019-01-25T09:51:18.307Z,29.60
2019-01-25T09:53:47.545Z,30.67
2019-01-25T09:56:16.780Z,29.67
2019-01-25T09:58:47.739Z,30.30
2019-01-25T10:01:16.997Z,30.47
2019-01-25T10:03:46.212Z,33.27
2019-01-25T10:06:15.401Z,27.90
2019-01-25T10:08:44.612Z,29.67
2019-01-25T10:11:13.843Z,31.37
2019-01-25T10:13:43.077Z,28.67
2019-01-25T10:16:12.288Z,30.07
2019-01-25T10:18:41.578Z,30.37
2019-01-25T10:21:10.774Z,27.37
2019-01-25T10:23:40.021Z,27.33
2019-01-25T10:26:09.233Z,29.40
2019-01-25T10:28:38.465Z,31.10
2019-01-25T10:31:07.696Z,29.13
2019-01-25T10:33:36.924Z,30.30
2019-01-25T10:36:06.117Z,28.77
2019-01-25T10:38:35.361Z,28.93
2019-01-25T10:41:04.668Z,30.73
2019-01-25T10:43:33.895Z,28.63
2019-01-25T10:46:03.511Z,29.63
2019-01-25T10:48:32.742Z,27.23
2019-01-25T10:51:01.948Z,28.40
2019-01-25T10:53:31.184Z,28.83
2019-01-25T10:56:00.460Z,28.40
2019-01-25T10:58:29.736Z,30.03
2019-01-25T11:00:58.956Z,31.97
2019-01-25T11:03:28.221Z,28.60
2019-01-25T11:05:57.442Z,32.13
2019-01-25T11:08:26.727Z,32.57
2019-01-25T11:10:56.070Z,33.57
2019-01-25T11:13:25.364Z,32.53
2019-01-25T11:15:54.599Z,31.67
2019-01-25T11:18:23.797Z,33.63
2019-01-25T11:20:53.028Z,33.63
2019-01-25T11:23:22.228Z,31.43
2019-01-25T11:25:51.448Z,31.57
2019-01-25T11:28:21.102Z,31.73
2019-01-25T11:30:50.337Z,34.90
2019-01-25T11:33:19.552Z,34.10
2019-01-25T11:35:48.776Z,33.50
2019-01-25T11:38:18.016Z,33.10
2019-01-25T11:40:47.271Z,32.80
2019-01-25T11:43:16.473Z,33.97
2019-01-25T11:45:45.688Z,33.47
2019-01-25T11:48:15.454Z,33.77
2019-01-25T11:50:44.688Z,31.67
2019-01-25T11:53:13.894Z,29.70
2019-01-25T11:55:43.188Z,28.13
2019-01-25T11:58:12.417Z,30.00
2019-01-25T12:00:45.291Z,30.53
2019-01-25T12:03:14.972Z,31.63
2019-01-25T12:05:44.217Z,32.23
2019-01-25T12:08:13.920Z,31.97
2019-01-25T12:10:43.128Z,32.63
2019-01-25T12:13:16.331Z,32.53
2019-01-25T12:15:43.184Z,35.03
2019-01-25T12:18:12.444Z,35.00
2019-01-25T12:20:41.665Z,36.83
2019-01-25T12:23:12.058Z,38.27
2019-01-25T12:25:41.440Z,34.60
2019-01-25T12:28:10.669Z,38.37
2019-01-25T12:30:40.553Z,33.53
2019-01-25T12:33:10.426Z,27.97
2019-01-25T12:35:41.844Z,29.97
2019-01-25T12:38:11.197Z,32.53
2019-01-25T12:40:42.289Z,32.33
2019-01-25T12:43:11.334Z,35.87
2019-01-25T12:45:40.502Z,36.67
2019-01-25T12:48:09.760Z,36.07
2019-01-25T12:51:00.921Z,34.43
2019-01-25T12:53:30.699Z,33.00
2019-01-25T12:55:59.920Z,33.70
2019-01-25T12:58:30.758Z,34.00
2019-01-25T13:01:01.378Z,36.80
2019-01-25T13:03:30.628Z,32.63
2019-01-25T13:05:59.859Z,34.80
2019-01-25T13:08:29.170Z,32.97
2019-01-25T13:10:59.980Z,34.37
2019-01-25T13:13:31.658Z,34.23
2019-01-25T13:16:00.383Z,35.33
2019-01-25T13:18:29.621Z,33.53
2019-01-25T13:20:58.835Z,36.70
2019-01-25T13:23:28.148Z,37.17
2019-01-25T13:25:57.361Z,36.60
2019-01-25T13:28:26.716Z,37.37
2019-01-25T13:30:56.259Z,38.87
2019-01-25T13:33:25.481Z,38.80
2019-01-25T13:35:54.789Z,39.67
2019-01-25T13:38:24.003Z,38.77
2019-01-25T13:40:53.255Z,39.77
2019-01-25T13:43:22.477Z,38.67
2019-01-25T13:45:51.837Z,36.90
2019-01-25T13:48:21.061Z,39.50
2019-01-25T13:50:50.360Z,37.10
2019-01-25T13:53:19.598Z,37.13
2019-01-25T13:55:48.877Z,39.00
2019-01-25T13:58:18.092Z,36.23
2019-01-25T14:00:47.365Z,38.23
2019-01-25T14:03:16.587Z,40.50
2019-01-25T14:05:45.817Z,42.53
2019-01-25T14:08:15.019Z,38.73
2019-01-25T14:10:44.265Z,37.37
2019-01-25T14:13:13.497Z,37.17
2019-01-25T14:15:42.741Z,35.10
2019-01-25T14:18:11.944Z,35.97
2019-01-25T14:20:41.169Z,36.90
2019-01-25T14:23:10.387Z,36.10
2019-01-25T14:25:39.644Z,35.67
2019-01-25T14:28:08.916Z,34.83
2019-01-25T14:30:40.653Z,36.73
2019-01-25T14:33:09.972Z,37.67
2019-01-25T14:35:40.072Z,37.53
2019-01-25T14:38:12.261Z,39.40
2019-01-25T14:40:41.486Z,39.17
2019-01-25T14:43:11.718Z,39.53
2019-01-25T14:45:41.114Z,35.80
2019-01-25T14:48:10.392Z,39.43
2019-01-25T14:50:39.612Z,39.13
2019-01-25T14:53:09.460Z,37.43
2019-01-25T14:55:38.793Z,36.10
2019-01-25T14:58:08.381Z,34.43
2019-01-25T15:00:37.624Z,32.50
2019-01-25T15:03:06.920Z,33.90
2019-01-25T15:05:36.180Z,32.30
2019-01-25T15:08:05.437Z,31.43
2019-01-25T15:10:35.200Z,31.20
2019-01-25T15:13:05.421Z,30.17
2019-01-25T15:15:34.761Z,29.43
2019-01-25T15:18:04.057Z,30.90
2019-01-25T15:20:33.461Z,28.53
2019-01-25T15:23:02.841Z,29.80
2019-01-25T15:25:32.478Z,30.57
2019-01-25T15:28:01.753Z,31.33
2019-01-25T15:30:32.800Z,32.43
2019-01-25T15:33:02.180Z,33.80
2019-01-25T15:35:31.488Z,31.13
2019-01-25T15:38:00.788Z,33.23
2019-01-25T15:40:30.093Z,31.13
2019-01-25T15:42:59.296Z,33.00
2019-01-25T15:45:28.519Z,33.50
2019-01-25T15:47:57.832Z,34.43
2019-01-25T15:50:29.224Z,33.53
2019-01-25T15:52:58.516Z,31.23
2019-01-25T15:55:28.449Z,33.63
2019-01-25T15:57:57.758Z,33.87
2019-01-25T16:00:28.440Z,31.90
2019-01-25T16:02:57.660Z,33.87
2019-01-25T16:05:27.189Z,34.40
2019-01-25T16:07:56.355Z,32.87
2019-01-25T16:10:25.579Z,32.40
2019-01-25T16:12:54.848Z,32.80
2019-01-25T16:15:31.498Z,33.40
2019-01-25T16:18:00.736Z,34.17
2019-01-25T16:20:30.092Z,33.17
2019-01-25T16:22:59.349Z,32.67
2019-01-25T16:25:33.996Z,34.83
2019-01-25T16:28:03.314Z,33.53
2019-01-25T16:30:37.564Z,33.60
2019-01-25T16:33:06.888Z,33.57
2019-01-25T16:35:36.156Z,34.70
2019-01-25T16:38:06.179Z,33.87
2019-01-25T16:40:35.532Z,34.20
2019-01-25T16:43:06.865Z,34.13
2019-01-25T16:45:38.793Z,33.33
2019-01-25T16:48:08.032Z,32.70
2019-01-25T16:50:37.377Z,33.57
2019-01-25T16:53:08.073Z,33.97
2019-01-25T16:55:37.320Z,33.17
2019-01-25T16:58:07.033Z,32.07
2019-01-25T17:00:49.265Z,34.37
2019-01-25T17:03:18.855Z,34.13
2019-01-25T17:05:48.067Z,32.30
2019-01-25T17:08:17.296Z,33.77
2019-01-25T17:10:46.521Z,32.67
2019-01-25T17:13:15.820Z,30.90
2019-01-25T17:15:45.052Z,32.70
2019-01-25T17:18:14.415Z,32.57
2019-01-25T17:20:43.627Z,31.57
2019-01-25T17:23:12.864Z,32.40
2019-01-25T17:25:42.144Z,29.97
2019-01-25T17:28:11.936Z,31.60
2019-01-25T17:30:42.857Z,31.60
2019-01-25T17:33:12.212Z,29.33
2019-01-25T17:35:41.524Z,29.97
2019-01-25T17:38:10.924Z,31.73
2019-01-25T17:40:46.669Z,29.73
2019-01-25T17:43:13.874Z,31.60
2019-01-25T17:45:43.057Z,30.07
2019-01-25T17:48:12.498Z,29.97
2019-01-25T17:50:41.857Z,29.73
2019-01-25T17:53:11.068Z,30.63
2019-01-25T17:55:40.334Z,30.63
2019-01-25T17:58:09.532Z,28.87
2019-01-25T18:00:51.926Z,28.87
2019-01-25T18:03:21.159Z,29.23
2019-01-25T18:05:50.412Z,28.87
2019-01-25T18:08:19.615Z,29.47
2019-01-25T18:10:48.844Z,30.57
2019-01-25T18:13:18.170Z,30.97
2019-01-25T18:15:47.380Z,32.13
2019-01-25T18:18:16.596Z,33.87
2019-01-25T18:20:45.822Z,31.20
2019-01-25T18:23:15.060Z,32.93
2019-01-25T18:25:53.372Z,34.37
2019-01-25T18:28:26.519Z,32.90
2019-01-25T18:30:59.080Z,35.43
2019-01-25T18:33:28.285Z,33.87
2019-01-25T18:35:57.531Z,36.53
2019-01-25T18:38:26.764Z,36.73
2019-01-25T18:40:56.019Z,35.50
2019-01-25T18:43:25.236Z,36.43
2019-01-25T18:45:54.540Z,35.00
2019-01-25T18:48:23.782Z,38.47
2019-01-25T18:50:53.041Z,33.77
2019-01-25T18:53:22.327Z,35.50
2019-01-25T18:55:51.563Z,35.50
2019-01-25T18:58:20.788Z,35.10
2019-01-25T19:00:50.049Z,36.13
2019-01-25T19:03:19.380Z,34.00
2019-01-25T19:05:48.607Z,33.63
2019-01-25T19:08:17.845Z,33.83
2019-01-25T19:10:47.185Z,31.50
2019-01-25T19:13:16.429Z,32.27
2019-01-25T19:15:45.761Z,33.17
2019-01-25T19:18:15.057Z,33.47
2019-01-25T19:20:44.372Z,33.93
2019-01-25T19:23:13.661Z,35.10
2019-01-25T19:25:42.872Z,33.07
2019-01-25T19:28:12.177Z,31.90
2019-01-25T19:30:43.489Z,33.23
2019-01-25T19:33:12.856Z,35.00
2019-01-25T19:35:42.048Z,32.80
2019-01-25T19:38:13.145Z,33.67
2019-01-25T19:40:42.412Z,32.30
2019-01-25T19:43:11.691Z,32.93
2019-01-25T19:45:41.010Z,33.30
2019-01-25T19:48:10.244Z,34.10
2019-01-25T19:50:39.468Z,33.20
2019-01-25T19:53:08.688Z,32.73
2019-01-25T19:55:37.965Z,35.47
2019-01-25T19:58:09.272Z,32.70
2019-01-25T20:00:40.218Z,33.47
2019-01-25T20:03:09.806Z,33.20
2019-01-25T20:05:39.041Z,35.13
2019-01-25T20:08:08.546Z,33.87
2019-01-25T20:10:37.989Z,32.57
2019-01-25T20:13:08.147Z,34.27
2019-01-25T20:15:37.347Z,32.33
2019-01-25T20:18:07.144Z,35.53
2019-01-25T20:20:36.625Z,35.00
2019-01-25T20:23:06.260Z,35.20
2019-01-25T20:25:35.531Z,34.30
2019-01-25T20:28:06.051Z,34.20
2019-01-25T20:30:35.833Z,34.57
2019-01-25T20:33:05.112Z,32.73
2019-01-25T20:35:36.352Z,34.87
2019-01-25T20:38:05.788Z,34.07
2019-01-25T20:40:35.053Z,34.00
2019-01-25T20:43:06.004Z,36.80
2019-01-25T20:45:37.056Z,36.00
2019-01-25T20:48:06.738Z,36.07
2019-01-25T20:50:36.398Z,35.50
2019-01-25T20:53:06.805Z,35.13
2019-01-25T20:55:35.996Z,35.40
2019-01-25T20:58:05.999Z,34.53
2019-01-25T21:00:37.003Z,35.33
2019-01-25T21:03:08.567Z,35.70
2019-01-25T21:05:37.755Z,33.43
2019-01-25T21:08:07.073Z,36.17
2019-01-25T21:10:36.438Z,34.47
2019-01-25T21:13:05.697Z,35.50
2019-01-25T21:15:35.603Z,35.70
2019-01-25T21:18:05.389Z,39.30
2019-01-25T21:20:37.016Z,36.53
2019-01-25T21:23:06.813Z,38.27
2019-01-25T21:25:36.021Z,39.77
2019-01-25T21:28:05.564Z,37.43
2019-01-25T21:30:35.085Z,37.90
2019-01-25T21:33:04.708Z,34.93
2019-01-25T21:35:34.008Z,34.97
2019-01-25T21:38:03.236Z,35.77
2019-01-25T21:40:33.664Z,35.07
2019-01-25T21:43:02.992Z,35.10
2019-01-25T21:45:34.291Z,34.77
2019-01-25T21:48:06.102Z,34.47
2019-01-25T21:50:37.500Z,34.20
2019-01-25T21:53:07.169Z,32.97
2019-01-25T21:55:36.410Z,34.73
2019-01-25T21:58:05.930Z,34.47
2019-01-25T22:00:35.602Z,33.43
2019-01-25T22:03:05.786Z,31.90
2019-01-25T22:05:35.047Z,33.13
2019-01-25T22:08:04.973Z,32.40
2019-01-25T22:10:39.796Z,31.20
2019-01-25T22:13:08.999Z,34.50
2019-01-25T22:15:38.200Z,33.17
2019-01-25T22:18:07.532Z,32.93
2019-01-25T22:20:36.930Z,33.07
2019-01-25T22:23:06.119Z,32.07
2019-01-25T22:25:35.316Z,33.93
2019-01-25T22:28:04.646Z,31.33
2019-01-25T22:30:34.017Z,29.73
2019-01-25T22:33:03.264Z,29.87
2019-01-25T22:35:32.472Z,31.67
2019-01-25T22:38:01.736Z,29.63
2019-01-25T22:40:32.477Z,30.17
2019-01-25T22:43:01.712Z,30.23
2019-01-25T22:45:31.887Z,28.13
2019-01-25T22:48:02.705Z,29.07
2019-01-25T22:50:34.617Z,29.67
2019-01-25T22:53:03.949Z,28.53
2019-01-25T22:55:33.164Z,30.37
2019-01-25T22:58:02.408Z,29.90
2019-01-25T23:00:52.089Z,27.17
2019-01-25T23:03:27.950Z,29.87
2019-01-25T23:06:22.999Z,29.33
2019-01-25T23:08:52.212Z,27.37
2019-01-25T23:11:21.424Z,29.33
2019-01-25T23:13:50.676Z,30.30
2019-01-25T23:16:19.872Z,29.83
2019-01-25T23:18:49.117Z,29.20
2019-01-25T23:21:18.332Z,29.57
2019-01-25T23:23:47.580Z,27.17
2019-01-25T23:26:16.788Z,28.10
2019-01-25T23:28:46.016Z,28.27
2019-01-25T23:31:15.233Z,27.30
2019-01-25T23:33:44.460Z,26.37
2019-01-25T23:36:13.728Z,26.43
2019-01-25T23:38:42.950Z,24.27
2019-01-25T23:41:12.152Z,26.53
2019-01-25T23:43:41.379Z,27.60
2019-01-25T23:46:13.867Z,24.77
2019-01-25T23:48:41.544Z,25.87
2019-01-25T23:51:10.752Z,27.60
2019-01-25T23:53:39.979Z,23.93
2019-01-25T23:56:09.204Z,22.43
2019-01-25T23:58:38.456Z,25.37
